createdAt,value
2018-01-29T00:00:03.931Z,4.22
2018-01-29T00:02:32.207Z,6.87
2018-01-29T00:04:59.707Z,4.70
2018-01-29T00:07:27.211Z,4.53
2018-01-29T00:09:54.707Z,4.30
2018-01-29T00:12:22.207Z,5.50
2018-01-29T00:14:49.698Z,4.47
2018-01-29T00:17:17.206Z,5.35
2018-01-29T00:19:44.702Z,5.28
2018-01-29T00:22:12.194Z,4.70
2018-01-29T00:24:39.698Z,5.43
2018-01-29T00:27:07.191Z,4.70
2018-01-29T00:29:35.457Z,5.05
2018-01-29T00:32:02.960Z,4.65
2018-01-29T00:34:30.468Z,4.78
2018-01-29T00:36:57.966Z,4.55
2018-01-29T00:39:25.471Z,4.05
2018-01-29T00:41:52.967Z,4.90
2018-01-29T00:44:21.238Z,4.40
2018-01-29T00:46:49.500Z,4.18
2018-01-29T00:49:17.006Z,4.15
2018-01-29T00:51:44.499Z,3.50
2018-01-29T00:54:11.998Z,3.65
2018-01-29T00:56:40.259Z,3.40
2018-01-29T00:59:07.764Z,4.28
2018-01-29T01:01:35.266Z,4.18
2018-01-29T01:04:03.006Z,3.40
2018-01-29T01:06:30.514Z,4.20
2018-01-29T01:08:58.766Z,3.42
2018-01-29T01:11:26.254Z,4.00
2018-01-29T01:13:53.756Z,3.45
2018-01-29T01:16:21.250Z,4.55
2018-01-29T01:18:49.506Z,3.60
2018-01-29T01:21:17.195Z,3.70
2018-01-29T01:23:45.451Z,3.80
2018-01-29T01:26:12.947Z,4.45
2018-01-29T01:28:40.455Z,3.87
2018-01-29T01:31:07.950Z,2.90
2018-01-29T01:33:36.434Z,4.97
2018-01-29T01:36:04.690Z,4.72
2018-01-29T01:38:32.201Z,3.97
2018-01-29T01:40:59.695Z,4.70
2018-01-29T01:43:27.203Z,4.20
2018-01-29T01:45:54.697Z,4.78
2018-01-29T01:48:22.190Z,3.67
2018-01-29T01:50:50.458Z,4.20
2018-01-29T01:53:17.956Z,4.12
2018-01-29T01:55:45.459Z,5.10
2018-01-29T01:58:12.951Z,3.60
2018-01-29T02:00:41.210Z,3.70
2018-01-29T02:03:09.481Z,4.43
2018-01-29T02:05:36.980Z,3.83
2018-01-29T02:08:04.498Z,22.08
2018-01-29T02:10:32.778Z,21.30
2018-01-29T02:13:00.290Z,26.42
2018-01-29T02:15:27.782Z,3.58
2018-01-29T02:17:55.275Z,3.60
2018-01-29T02:20:23.530Z,4.30
2018-01-29T02:22:51.207Z,3.90
2018-01-29T02:25:19.475Z,4.57
2018-01-29T02:27:47.732Z,4.22
2018-01-29T02:30:15.418Z,3.70
2018-01-29T02:32:43.700Z,6.47
2018-01-29T02:35:11.955Z,4.20
2018-01-29T02:37:39.453Z,3.60
2018-01-29T02:40:06.946Z,4.62
2018-01-29T02:42:34.434Z,5.03
2018-01-29T02:45:02.701Z,3.25
2018-01-29T02:47:30.190Z,3.83
2018-01-29T02:49:57.697Z,4.85
2018-01-29T02:52:25.195Z,3.28
2018-01-29T02:54:53.467Z,3.45
2018-01-29T02:57:21.730Z,3.80
2018-01-29T02:59:50.114Z,3.25
2018-01-29T03:02:17.615Z,3.87
2018-01-29T03:04:45.113Z,4.03
2018-01-29T03:07:12.599Z,3.10
2018-01-29T03:09:40.875Z,4.00
2018-01-29T03:12:09.126Z,4.25
2018-01-29T03:14:36.629Z,4.55
2018-01-29T03:17:04.272Z,4.30
2018-01-29T03:19:32.530Z,3.70
2018-01-29T03:22:00.039Z,4.12
2018-01-29T03:24:27.662Z,3.87
2018-01-29T03:26:55.922Z,4.28
2018-01-29T03:29:23.410Z,3.28
2018-01-29T03:31:50.905Z,4.30
2018-01-29T03:34:18.406Z,4.35
2018-01-29T03:36:45.891Z,3.50
2018-01-29T03:39:13.395Z,3.60
2018-01-29T03:41:40.890Z,3.50
2018-01-29T03:44:09.163Z,4.00
2018-01-29T03:46:37.550Z,4.10
2018-01-29T03:49:05.810Z,3.58
2018-01-29T03:51:33.318Z,4.00
2018-01-29T03:54:00.938Z,3.62
2018-01-29T03:56:29.202Z,4.40
2018-01-29T03:58:56.976Z,3.97
2018-01-29T04:01:25.254Z,5.12
2018-01-29T04:03:53.737Z,4.30
2018-01-29T04:06:22.114Z,4.55
2018-01-29T04:08:50.378Z,5.20
2018-01-29T04:11:17.867Z,4.20
2018-01-29T04:13:45.374Z,4.32
2018-01-29T04:16:12.871Z,3.95
2018-01-29T04:18:41.138Z,4.53
2018-01-29T04:21:09.398Z,4.65
2018-01-29T04:23:37.666Z,4.20
2018-01-29T04:26:05.163Z,5.15
2018-01-29T04:28:33.419Z,5.55
2018-01-29T04:31:00.928Z,5.10
2018-01-29T04:33:28.446Z,4.95
2018-01-29T04:35:56.705Z,4.40
2018-01-29T04:38:24.219Z,4.90
2018-01-29T04:40:51.711Z,4.65
2018-01-29T04:43:19.211Z,6.20
2018-01-29T04:46:01.595Z,4.68
2018-01-29T04:48:29.106Z,5.70
2018-01-29T04:50:56.594Z,4.55
2018-01-29T04:53:24.086Z,4.82
2018-01-29T04:55:51.582Z,4.97
2018-01-29T04:58:19.201Z,4.87
2018-01-29T05:00:47.478Z,4.90
2018-01-29T05:03:15.743Z,4.70
2018-01-29T05:05:44.000Z,5.30
2018-01-29T05:08:11.496Z,5.18
2018-01-29T05:10:38.990Z,4.97
2018-01-29T05:13:06.484Z,5.37
2018-01-29T05:15:33.991Z,5.15
2018-01-29T05:18:01.484Z,4.87
2018-01-29T05:20:28.990Z,5.28
2018-01-29T05:22:56.496Z,6.03
2018-01-29T05:25:24.020Z,5.00
2018-01-29T05:27:51.524Z,5.40
2018-01-29T05:30:19.026Z,4.97
2018-01-29T05:32:46.543Z,5.03
2018-01-29T05:35:16.538Z,4.60
2018-01-29T05:51:05.814Z,4.60
2018-01-29T05:53:33.503Z,4.43
2018-01-29T06:09:03.439Z,4.43
2018-01-29T06:11:31.192Z,3.90
2018-01-29T06:13:58.687Z,5.00
2018-01-29T06:16:26.190Z,5.43
2018-01-29T06:18:54.455Z,4.87
2018-01-29T06:21:22.734Z,8.50
2018-01-29T06:23:51.005Z,7.85
2018-01-29T06:26:19.283Z,5.15
2018-01-29T06:28:47.542Z,5.57
2018-01-29T06:31:15.154Z,4.70
2018-01-29T06:33:42.654Z,4.70
2018-01-29T06:36:10.142Z,4.22
2018-01-29T06:38:38.422Z,4.28
2018-01-29T06:41:06.678Z,4.35
2018-01-29T06:43:34.179Z,4.22
2018-01-29T06:46:01.679Z,3.80
2018-01-29T06:48:29.372Z,4.28
2018-01-29T06:50:57.644Z,4.72
2018-01-29T06:53:25.922Z,4.50
2018-01-29T06:55:54.199Z,4.68
2018-01-29T06:58:22.566Z,5.37
2018-01-29T07:00:50.066Z,4.93
2018-01-29T07:03:17.566Z,4.50
2018-01-29T07:05:45.084Z,5.07
2018-01-29T07:08:12.582Z,5.28
2018-01-29T07:10:40.083Z,5.32
2018-01-29T07:13:07.587Z,5.00
2018-01-29T07:15:35.098Z,5.82
2018-01-29T07:18:02.639Z,5.60
2018-01-29T07:20:30.151Z,5.20
2018-01-29T07:22:57.715Z,5.32
2018-01-29T07:25:25.214Z,5.20
2018-01-29T07:27:53.495Z,5.37
2018-01-29T07:30:21.982Z,4.70
2018-01-29T07:32:50.242Z,5.35
2018-01-29T07:35:17.735Z,4.65
2018-01-29T07:37:45.234Z,5.03
2018-01-29T07:40:12.742Z,5.00
2018-01-29T07:42:40.248Z,4.70
2018-01-29T07:45:07.767Z,4.65
2018-01-29T07:47:35.286Z,4.50
2018-01-29T07:50:02.790Z,4.55
2018-01-29T07:52:30.293Z,4.82
2018-01-29T07:54:57.799Z,4.03
2018-01-29T07:57:25.322Z,4.43
2018-01-29T07:59:52.835Z,4.55
2018-01-29T08:02:20.344Z,5.50
2018-01-29T08:04:47.843Z,4.43
2018-01-29T08:07:15.346Z,4.90
2018-01-29T08:09:42.859Z,4.40
2018-01-29T08:12:10.388Z,4.47
2018-01-29T08:14:38.660Z,4.70
2018-01-29T08:17:07.151Z,4.65
2018-01-29T08:19:35.419Z,4.40
2018-01-29T08:22:03.705Z,5.07
2018-01-29T08:24:31.972Z,4.30
2018-01-29T08:27:00.248Z,4.80
2018-01-29T08:29:28.654Z,4.68
2018-01-29T08:31:56.160Z,5.12
2018-01-29T08:34:24.445Z,5.80
2018-01-29T08:36:52.729Z,5.80
2018-01-29T08:39:20.237Z,5.03
2018-01-29T08:41:47.739Z,5.40
2018-01-29T08:44:15.367Z,5.47
2018-01-29T08:46:42.882Z,5.25
2018-01-29T08:49:11.371Z,6.03
2018-01-29T08:51:38.888Z,4.95
2018-01-29T08:54:06.394Z,5.60
2018-01-29T08:56:33.921Z,5.32
2018-01-29T08:59:01.426Z,6.78
2018-01-29T09:01:28.936Z,6.75
2018-01-29T09:03:56.441Z,5.40
2018-01-29T09:06:23.967Z,6.22
2018-01-29T09:08:52.239Z,6.05
2018-01-29T09:11:20.508Z,5.07
2018-01-29T09:13:48.023Z,5.40
2018-01-29T09:16:15.527Z,5.28
2018-01-29T09:18:43.813Z,5.53
2018-01-29T09:21:12.096Z,5.12
2018-01-29T09:23:40.366Z,4.70
2018-01-29T09:26:08.640Z,4.87
2018-01-29T09:28:36.916Z,5.82
2018-01-29T09:31:05.213Z,5.22
2018-01-29T09:33:32.716Z,5.00
2018-01-29T09:36:00.235Z,5.03
2018-01-29T09:38:27.735Z,4.72
2018-01-29T09:40:55.447Z,4.47
2018-01-29T09:43:22.972Z,4.95
2018-01-29T09:45:51.239Z,4.25
2018-01-29T09:48:18.749Z,4.47
2018-01-29T09:50:46.267Z,4.12
2018-01-29T09:53:13.775Z,4.93
2018-01-29T09:55:41.288Z,4.60
2018-01-29T09:58:08.792Z,4.55
2018-01-29T10:00:36.312Z,4.80
2018-01-29T10:03:04.588Z,5.07
2018-01-29T10:05:32.863Z,4.25
2018-01-29T10:08:01.123Z,4.62
2018-01-29T10:10:28.637Z,4.90
2018-01-29T10:12:56.147Z,4.78
2018-01-29T10:15:23.663Z,4.10
2018-01-29T10:17:51.165Z,4.75
2018-01-29T10:20:19.431Z,4.60
2018-01-29T10:22:46.927Z,4.50
2018-01-29T10:25:14.445Z,5.60
2018-01-29T10:27:44.475Z,4.57
2018-01-29T10:30:13.486Z,4.43
2018-01-29T10:32:41.755Z,4.20
2018-01-29T10:35:10.027Z,4.20
2018-01-29T10:37:37.536Z,4.65
2018-01-29T10:40:05.088Z,4.40
2018-01-29T10:42:32.623Z,4.10
2018-01-29T10:45:00.119Z,3.70
2018-01-29T10:47:27.623Z,3.95
2018-01-29T10:49:55.912Z,4.05
2018-01-29T10:52:24.242Z,4.45
2018-01-29T10:54:51.742Z,4.60
2018-01-29T10:57:20.015Z,4.28
2018-01-29T10:59:48.282Z,4.65
2018-01-29T11:02:15.800Z,4.18
2018-01-29T11:04:43.314Z,4.28
2018-01-29T11:07:11.578Z,3.97
2018-01-29T11:09:39.853Z,3.87
2018-01-29T11:12:08.138Z,4.37
2018-01-29T11:14:36.402Z,4.70
2018-01-29T11:17:03.917Z,4.20
2018-01-29T11:19:31.426Z,3.80
2018-01-29T11:21:59.705Z,5.00
2018-01-29T11:24:27.979Z,4.85
2018-01-29T11:26:56.254Z,4.85
2018-01-29T11:29:24.518Z,4.10
2018-01-29T11:31:52.934Z,3.72
2018-01-29T11:34:20.438Z,3.50
2018-01-29T11:36:47.938Z,3.42
2018-01-29T11:39:16.210Z,4.18
2018-01-29T11:41:44.535Z,3.70
2018-01-29T11:44:12.041Z,3.90
2018-01-29T11:46:40.311Z,3.60
2018-01-29T11:49:08.587Z,4.00
2018-01-29T11:51:36.088Z,3.53
2018-01-29T11:54:03.598Z,3.33
2018-01-29T11:56:31.100Z,3.60
2018-01-29T11:58:58.839Z,5.00
2018-01-29T12:01:27.119Z,3.73
2018-01-29T12:03:55.410Z,3.50
2018-01-29T12:06:22.918Z,3.80
2018-01-29T12:08:50.415Z,3.43
2018-01-29T12:11:18.680Z,3.00
2018-01-29T12:13:46.955Z,3.00
2018-01-29T12:16:15.230Z,3.93
2018-01-29T12:18:43.519Z,3.20
2018-01-29T12:21:11.778Z,3.00
2018-01-29T12:23:39.279Z,3.60
2018-01-29T12:26:06.775Z,3.20
2018-01-29T12:28:34.274Z,3.10
2018-01-29T12:31:02.606Z,3.20
2018-01-29T12:33:30.107Z,3.07
2018-01-29T12:35:58.366Z,3.00
2018-01-29T12:38:27.655Z,3.23
2018-01-29T12:40:55.166Z,3.60
2018-01-29T12:43:22.663Z,3.67
2018-01-29T12:45:50.155Z,3.10
2018-01-29T12:48:18.431Z,3.60
2018-01-29T12:50:46.759Z,3.57
2018-01-29T12:53:14.278Z,3.60
2018-01-29T12:55:41.778Z,3.63
2018-01-29T12:58:09.270Z,3.27
2018-01-29T13:00:37.543Z,3.47
2018-01-29T13:03:05.816Z,2.93
2018-01-29T13:05:33.322Z,3.37
2018-01-29T13:08:00.844Z,3.83
2018-01-29T13:10:29.104Z,3.10
2018-01-29T13:12:56.599Z,3.23
2018-01-29T13:15:24.099Z,2.67
2018-01-29T13:17:51.591Z,3.17
2018-01-29T13:20:19.850Z,3.40
2018-01-29T13:22:47.354Z,3.57
2018-01-29T13:25:14.851Z,2.87
2018-01-29T13:27:42.347Z,2.90
2018-01-29T13:30:10.659Z,3.27
2018-01-29T13:32:38.154Z,3.17
2018-01-29T13:35:05.671Z,3.73
2018-01-29T13:37:33.166Z,3.50
2018-01-29T13:40:00.675Z,4.57
2018-01-29T13:42:28.166Z,4.07
2018-01-29T13:44:55.654Z,3.90
2018-01-29T13:47:23.925Z,5.73
2018-01-29T13:49:52.940Z,4.33
2018-01-29T13:52:21.202Z,3.30
2018-01-29T13:54:48.694Z,3.43
2018-01-29T13:57:16.202Z,3.33
2018-01-29T13:59:43.715Z,26.50
2018-01-29T14:02:11.264Z,3.63
2018-01-29T14:04:39.519Z,4.53
2018-01-29T14:07:07.031Z,4.00
2018-01-29T14:09:34.523Z,4.57
2018-01-29T14:12:02.028Z,4.10
2018-01-29T14:14:29.532Z,5.10
2018-01-29T14:16:57.031Z,3.57
2018-01-29T14:19:25.304Z,3.60
2018-01-29T14:21:53.562Z,4.73
2018-01-29T14:24:21.079Z,3.23
2018-01-29T14:26:48.613Z,4.60
2018-01-29T14:29:16.126Z,5.70
2018-01-29T14:31:44.383Z,4.30
2018-01-29T14:34:11.887Z,4.50
2018-01-29T14:36:40.146Z,3.87
2018-01-29T14:39:09.150Z,3.60
2018-01-29T14:41:37.439Z,4.20
2018-01-29T14:44:05.714Z,3.83
2018-01-29T14:46:33.983Z,3.90
2018-01-29T14:49:02.247Z,3.90
2018-01-29T14:51:29.744Z,4.50
2018-01-29T14:53:57.247Z,4.33
2018-01-29T14:56:24.746Z,4.67
2018-01-29T14:58:52.271Z,4.03
2018-01-29T15:01:19.831Z,3.60
2018-01-29T15:03:47.331Z,3.73
2018-01-29T15:06:14.839Z,4.47
2018-01-29T15:08:42.377Z,3.90
2018-01-29T15:11:09.870Z,4.10
2018-01-29T15:13:37.408Z,4.00
2018-01-29T15:16:04.899Z,4.10
2018-01-29T15:18:33.158Z,8.60
2018-01-29T15:21:00.695Z,9.00
2018-01-29T15:23:28.192Z,5.97
2018-01-29T15:25:56.492Z,12.50
2018-01-29T15:28:23.990Z,8.83
2018-01-29T15:30:51.506Z,5.68
2018-01-29T15:33:19.046Z,4.87
2018-01-29T15:35:47.312Z,4.87
2018-01-29T15:38:15.575Z,4.50
2018-01-29T15:40:43.086Z,4.00
2018-01-29T15:43:10.610Z,4.75
2018-01-29T15:45:38.878Z,5.37
2018-01-29T15:48:07.142Z,3.90
2018-01-29T15:50:34.673Z,4.25
2018-01-29T15:53:02.203Z,4.93
2018-01-29T15:55:29.708Z,4.50
2018-01-29T15:57:57.227Z,5.95
2018-01-29T16:00:24.726Z,5.80
2018-01-29T16:02:52.230Z,5.10
2018-01-29T16:05:19.739Z,4.15
2018-01-29T16:07:47.248Z,5.40
2018-01-29T16:10:14.750Z,4.62
2018-01-29T16:12:42.263Z,5.18
2018-01-29T16:15:09.785Z,4.70
2018-01-29T16:17:37.296Z,5.10
2018-01-29T16:20:04.794Z,4.68
2018-01-29T16:22:32.301Z,5.20
2018-01-29T16:24:59.821Z,5.47
2018-01-29T16:27:27.323Z,5.30
2018-01-29T16:29:54.858Z,5.60
2018-01-29T16:32:23.126Z,6.22
2018-01-29T16:34:51.408Z,6.65
2018-01-29T16:37:19.686Z,6.37
2018-01-29T16:39:47.968Z,5.80
2018-01-29T16:42:16.234Z,5.30
2018-01-29T16:44:44.510Z,5.10
2018-01-29T16:47:12.782Z,4.78
2018-01-29T16:49:40.283Z,5.70
2018-01-29T16:52:07.799Z,5.37
2018-01-29T16:54:36.095Z,10.02
2018-01-29T16:57:04.374Z,5.90
2018-01-29T16:59:31.886Z,5.03
2018-01-29T17:01:59.383Z,6.10
2018-01-29T17:04:27.662Z,5.40
2018-01-29T17:06:55.934Z,5.68
2018-01-29T17:09:24.216Z,6.00
2018-01-29T17:11:52.491Z,5.70
2018-01-29T17:14:20.754Z,5.47
2018-01-29T17:16:49.036Z,6.87
2018-01-29T17:19:17.303Z,5.53
2018-01-29T17:21:45.562Z,6.45
2018-01-29T17:24:13.086Z,5.87
2018-01-29T17:26:40.598Z,6.45
2018-01-29T17:29:08.909Z,6.20
2018-01-29T17:31:36.407Z,5.90
2018-01-29T17:34:03.929Z,6.82
2018-01-29T17:36:31.424Z,5.95
2018-01-29T17:39:00.445Z,6.50
2018-01-29T17:41:28.730Z,7.05
2018-01-29T17:43:56.999Z,6.70
2018-01-29T17:46:25.272Z,6.68
2018-01-29T17:48:52.770Z,5.80
2018-01-29T17:51:20.284Z,6.80
2018-01-29T17:53:47.790Z,7.00
2018-01-29T17:56:15.283Z,6.20
2018-01-29T17:58:42.778Z,6.30
2018-01-29T18:01:11.054Z,5.75
2018-01-29T18:03:39.314Z,6.85
2018-01-29T18:06:06.865Z,7.37
2018-01-29T18:08:34.385Z,6.60
2018-01-29T18:11:01.875Z,6.28
2018-01-29T18:13:29.371Z,6.85
2018-01-29T18:15:57.649Z,6.90
2018-01-29T18:18:25.146Z,6.40
2018-01-29T18:20:52.638Z,6.70
2018-01-29T18:23:20.146Z,6.35
2018-01-29T18:25:47.663Z,7.12
2018-01-29T18:28:15.930Z,7.15
2018-01-29T18:30:43.447Z,8.02
2018-01-29T18:33:10.944Z,8.27
2018-01-29T18:35:38.458Z,10.10
2018-01-29T18:38:05.956Z,8.50
2018-01-29T18:40:33.446Z,8.68
2018-01-29T18:43:01.719Z,7.50
2018-01-29T18:45:29.979Z,7.90
2018-01-29T18:47:57.521Z,7.75
2018-01-29T18:50:25.011Z,7.55
2018-01-29T18:52:53.270Z,8.55
2018-01-29T18:55:20.762Z,8.57
2018-01-29T18:57:48.300Z,8.27
2018-01-29T19:00:16.562Z,7.65
2018-01-29T19:02:44.070Z,8.60
2018-01-29T19:05:11.566Z,8.30
2018-01-29T19:07:39.076Z,10.30
2018-01-29T19:10:06.602Z,10.02
2018-01-29T19:12:34.862Z,8.88
2018-01-29T19:15:02.382Z,9.18
2018-01-29T19:17:29.896Z,9.15
2018-01-29T19:19:58.167Z,8.95
2018-01-29T19:22:25.683Z,8.43
2018-01-29T19:24:53.186Z,8.80
2018-01-29T19:27:20.703Z,9.35
2018-01-29T19:29:48.235Z,9.10
2018-01-29T19:32:15.724Z,8.73
2018-01-29T19:34:43.234Z,10.68
2018-01-29T19:37:11.495Z,9.02
2018-01-29T19:39:39.770Z,9.48
2018-01-29T19:42:07.283Z,9.65
2018-01-29T19:44:34.778Z,11.50
2018-01-29T19:47:03.063Z,10.10
2018-01-29T19:49:31.331Z,10.00
2018-01-29T19:51:58.847Z,11.75
2018-01-29T19:54:26.341Z,10.73
2018-01-29T19:56:53.882Z,10.82
2018-01-29T19:59:21.348Z,10.30
2018-01-29T20:01:48.847Z,11.80
2018-01-29T20:04:17.130Z,11.88
2018-01-29T20:06:45.391Z,12.40
2018-01-29T20:09:13.671Z,11.30
2018-01-29T20:11:41.927Z,11.07
2018-01-29T20:14:09.460Z,10.98
2018-01-29T20:16:36.978Z,11.73
2018-01-29T20:19:05.242Z,11.77
2018-01-29T20:21:33.508Z,13.07
2018-01-29T20:24:01.019Z,12.70
2018-01-29T20:26:29.466Z,12.82
2018-01-29T20:28:57.726Z,13.50
2018-01-29T20:31:25.987Z,11.82
2018-01-29T20:33:53.498Z,13.62
2018-01-29T20:36:21.007Z,12.68
2018-01-29T20:38:48.527Z,13.10
2018-01-29T20:41:16.031Z,12.77
2018-01-29T20:43:43.551Z,13.13
2018-01-29T20:46:11.038Z,13.70
2018-01-29T20:48:38.531Z,12.48
2018-01-29T20:51:06.030Z,11.60
2018-01-29T20:53:33.548Z,13.75
2018-01-29T20:56:01.042Z,11.20
2018-01-29T20:58:28.545Z,12.80
2018-01-29T21:00:56.058Z,12.55
2018-01-29T21:03:23.555Z,13.18
2018-01-29T21:05:51.818Z,13.60
2018-01-29T21:08:20.094Z,12.70
2018-01-29T21:10:47.615Z,15.30
2018-01-29T21:13:15.118Z,13.80
2018-01-29T21:15:42.612Z,14.48
2018-01-29T21:18:10.114Z,15.80
2018-01-29T21:20:37.626Z,12.80
2018-01-29T21:23:05.126Z,13.98
2018-01-29T21:25:32.621Z,12.85
2018-01-29T21:28:00.891Z,14.43
2018-01-29T21:30:28.398Z,13.50
2018-01-29T21:32:55.890Z,14.27
2018-01-29T21:35:23.383Z,14.52
2018-01-29T21:37:51.662Z,15.95
2018-01-29T21:40:19.918Z,15.23
2018-01-29T21:42:47.410Z,15.93
2018-01-29T21:45:14.906Z,15.55
2018-01-29T21:47:42.941Z,16.37
2018-01-29T21:50:11.249Z,15.43
2018-01-29T21:52:39.586Z,14.80
2018-01-29T21:55:11.098Z,14.73
2018-01-29T21:57:38.627Z,15.35
2018-01-29T22:00:06.123Z,15.40
2018-01-29T22:02:33.630Z,14.38
2018-01-29T22:05:01.123Z,14.60
2018-01-29T22:07:28.626Z,13.62
2018-01-29T22:09:56.887Z,14.45
2018-01-29T22:12:25.151Z,15.40
2018-01-29T22:14:52.647Z,14.23
2018-01-29T22:17:20.154Z,14.25
2018-01-29T22:19:47.647Z,13.73
2018-01-29T22:22:15.906Z,14.68
2018-01-29T22:24:43.407Z,14.80
2018-01-29T22:27:10.924Z,15.57
2018-01-29T22:29:38.434Z,14.25
2018-01-29T22:32:05.926Z,15.15
2018-01-29T22:34:33.423Z,15.02
2018-01-29T22:37:00.929Z,15.15
2018-01-29T22:39:28.440Z,13.85
2018-01-29T22:41:56.707Z,14.95
2018-01-29T22:44:24.970Z,15.60
2018-01-29T22:46:52.477Z,14.55
2018-01-29T22:49:19.966Z,14.02
2018-01-29T22:51:47.478Z,14.13
2018-01-29T22:54:14.982Z,14.38
2018-01-29T22:56:42.479Z,14.52
2018-01-29T22:59:10.748Z,14.02
2018-01-29T23:01:39.002Z,15.38
2018-01-29T23:17:07.943Z,13.43
2018-01-29T23:19:35.443Z,11.07
2018-01-29T23:22:02.963Z,11.75
2018-01-29T23:24:30.459Z,10.15
2018-01-29T23:27:01.008Z,10.43
2018-01-29T23:29:28.583Z,9.55
2018-01-29T23:31:56.074Z,9.90
2018-01-29T23:34:23.563Z,9.73
2018-01-29T23:36:51.051Z,9.15
2018-01-29T23:39:18.546Z,9.13
2018-01-29T23:41:46.043Z,9.48
2018-01-29T23:44:13.540Z,10.65
2018-01-29T23:46:41.042Z,9.50
2018-01-29T23:49:08.534Z,9.77
2018-01-29T23:51:36.807Z,9.27
2018-01-29T23:54:05.063Z,9.55
2018-01-29T23:56:32.559Z,9.50
2018-01-29T23:59:00.059Z,10.30
